createdAt,value
2018-02-06T00:02:04.795Z,28.98
2018-02-06T00:04:33.063Z,18.95
2018-02-06T00:07:01.303Z,23.52
2018-02-06T00:09:28.818Z,19.25
2018-02-06T00:11:56.317Z,23.67
2018-02-06T00:14:23.790Z,26.90
2018-02-06T00:16:51.363Z,21.70
2018-02-06T00:19:19.605Z,14.35
2018-02-06T00:21:47.083Z,13.82
2018-02-06T00:24:15.343Z,15.10
2018-02-06T00:26:42.815Z,14.70
2018-02-06T00:29:10.290Z,14.35
2018-02-06T00:31:38.630Z,17.35
2018-02-06T00:34:08.030Z,17.70
2018-02-06T00:36:35.510Z,16.10
2018-02-06T00:39:02.991Z,29.23
2018-02-06T00:41:30.470Z,19.95
2018-02-06T00:43:57.940Z,18.08
2018-02-06T00:46:25.445Z,14.40
2018-02-06T00:48:52.893Z,16.17
2018-02-06T00:51:21.136Z,20.30
2018-02-06T00:53:48.638Z,18.67
2018-02-06T00:56:16.119Z,18.40
2018-02-06T00:58:43.592Z,23.27
2018-02-06T01:01:11.070Z,22.27
2018-02-06T01:03:38.538Z,25.17
2018-02-06T01:06:07.068Z,22.08
2018-02-06T01:08:35.425Z,18.92
2018-02-06T01:11:02.895Z,18.00
2018-02-06T01:13:30.369Z,18.98
2018-02-06T01:15:57.858Z,16.87
2018-02-06T01:18:25.362Z,12.57
2018-02-06T01:20:52.839Z,15.73
2018-02-06T01:23:20.319Z,15.70
2018-02-06T01:25:47.787Z,22.17
2018-02-06T01:28:15.264Z,17.80
2018-02-06T01:30:43.519Z,19.25
2018-02-06T01:33:10.988Z,16.40
2018-02-06T01:35:39.232Z,16.48
2018-02-06T01:38:06.815Z,16.30
2018-02-06T01:40:35.062Z,24.08
2018-02-06T01:43:02.548Z,21.05
2018-02-06T01:45:30.806Z,24.08
2018-02-06T01:47:58.269Z,19.45
2018-02-06T01:50:25.751Z,17.80
2018-02-06T01:52:53.998Z,19.60
2018-02-06T01:55:21.464Z,15.82
2018-02-06T01:57:49.706Z,16.80
2018-02-06T02:00:17.278Z,17.17
2018-02-06T02:02:44.758Z,19.02
2018-02-06T02:05:12.999Z,22.58
2018-02-06T02:07:40.575Z,13.50
2018-02-06T02:10:08.035Z,15.88
2018-02-06T02:12:36.273Z,14.48
2018-02-06T02:15:03.767Z,14.50
2018-02-06T02:17:31.998Z,17.98
2018-02-06T02:19:59.466Z,14.45
2018-02-06T02:22:26.970Z,25.90
2018-02-06T02:24:54.458Z,19.92
2018-02-06T02:27:21.936Z,18.87
2018-02-06T02:29:49.412Z,24.33
2018-02-06T02:32:16.872Z,17.85
2018-02-06T02:34:45.124Z,19.67
2018-02-06T02:37:12.608Z,25.08
2018-02-06T02:39:40.079Z,25.25
2018-02-06T04:40:19.279Z,17.80
2018-02-06T04:42:47.528Z,21.65
2018-02-06T04:45:14.997Z,15.32
2018-02-06T04:47:42.490Z,15.45
2018-02-06T04:50:09.950Z,16.27
2018-02-06T04:52:38.249Z,17.35
2018-02-06T04:55:06.471Z,15.38
2018-02-06T04:57:33.974Z,13.18
2018-02-06T05:00:02.257Z,24.85
2018-02-06T05:02:29.718Z,23.77
2018-02-06T05:04:57.201Z,21.87
2018-02-06T05:07:24.741Z,25.20
2018-02-06T05:09:52.350Z,19.27
2018-02-06T05:12:20.222Z,24.10
2018-02-06T05:14:48.759Z,23.42
2018-02-06T05:17:16.309Z,19.42
2018-02-06T05:19:43.800Z,16.58
2018-02-06T05:22:11.265Z,25.50
2018-02-06T05:24:39.574Z,23.02
2018-02-06T05:27:07.057Z,24.85
2018-02-06T05:29:34.542Z,23.62
2018-02-06T05:32:02.007Z,24.12
2018-02-06T05:34:29.497Z,26.15
2018-02-06T05:36:56.969Z,18.85
2018-02-06T05:39:24.468Z,33.85
2018-02-06T05:41:51.944Z,25.45
2018-02-06T05:44:20.254Z,24.60
2018-02-06T05:46:47.740Z,24.23
2018-02-06T05:49:15.201Z,20.27
2018-02-06T05:51:42.692Z,23.33
2018-02-06T05:54:10.944Z,27.20
2018-02-06T05:56:38.412Z,18.95
2018-02-06T05:59:06.666Z,22.33
2018-02-06T06:01:34.128Z,25.08
2018-02-06T06:04:01.627Z,19.30
2018-02-06T06:06:29.100Z,21.37
2018-02-06T06:08:56.877Z,26.48
2018-02-06T06:11:24.358Z,29.48
2018-02-06T06:13:51.829Z,24.63
2018-02-06T06:16:20.094Z,27.62
2018-02-06T06:18:47.560Z,21.83
2018-02-06T06:21:15.052Z,24.33
2018-02-06T06:23:42.516Z,28.40
2018-02-06T06:26:10.003Z,23.80
2018-02-06T06:28:38.276Z,26.83
2018-02-06T06:31:05.748Z,24.83
2018-02-06T06:33:33.226Z,21.42
2018-02-06T06:36:01.489Z,23.52
2018-02-06T06:38:29.720Z,28.83
2018-02-06T06:40:57.191Z,27.98
2018-02-06T06:43:24.666Z,29.00
2018-02-06T06:45:52.128Z,22.40
2018-02-06T06:48:19.624Z,12.65
2018-02-06T06:50:47.118Z,14.40
2018-02-06T06:53:14.840Z,13.25
2018-02-06T06:55:42.350Z,12.65
2018-02-06T06:58:09.811Z,16.05
2018-02-06T07:00:37.276Z,15.15
2018-02-06T07:03:05.540Z,15.45
2018-02-06T07:05:33.006Z,13.20
2018-02-06T07:08:00.492Z,14.77
2018-02-06T07:10:27.959Z,12.70
2018-02-06T07:12:55.444Z,16.80
2018-02-06T07:15:22.909Z,15.70
2018-02-06T07:17:50.402Z,15.80
2018-02-06T07:20:18.654Z,13.20
2018-02-06T07:22:46.140Z,14.80
2018-02-06T07:25:13.606Z,16.23
2018-02-06T07:27:41.098Z,16.12
2018-02-06T07:30:08.594Z,19.17
2018-02-06T07:32:36.822Z,14.82
2018-02-06T07:35:04.318Z,15.48
2018-02-06T07:37:32.566Z,15.07
2018-02-06T07:40:00.023Z,14.70
2018-02-06T07:42:27.506Z,12.15
2018-02-06T07:44:55.749Z,15.18
2018-02-06T07:47:23.219Z,14.20
2018-02-06T07:49:50.689Z,17.08
2018-02-06T07:52:18.190Z,15.68
2018-02-06T07:54:45.654Z,15.20
2018-02-06T07:57:13.150Z,13.43
2018-02-06T07:59:40.633Z,13.57
2018-02-06T08:02:08.863Z,15.57
2018-02-06T08:04:36.345Z,16.75
2018-02-06T08:07:04.582Z,18.00
2018-02-06T08:09:32.072Z,15.68
2018-02-06T08:11:59.533Z,17.30
2018-02-06T08:14:27.789Z,14.23
2018-02-06T08:16:55.249Z,18.05
2018-02-06T08:19:22.714Z,18.20
2018-02-06T08:21:50.978Z,18.60
2018-02-06T08:24:18.434Z,14.15
2018-02-06T08:26:45.930Z,16.58
2018-02-06T08:29:13.392Z,17.50
2018-02-06T08:31:40.877Z,17.17
2018-02-06T08:34:08.350Z,29.77
2018-02-06T08:36:35.841Z,25.50
2018-02-06T08:39:04.093Z,26.42
2018-02-06T08:41:31.593Z,24.27
2018-02-06T08:43:59.060Z,21.12
2018-02-06T08:46:26.522Z,21.83
2018-02-06T08:48:54.015Z,26.17
2018-02-06T08:51:21.509Z,20.60
2018-02-06T08:53:49.033Z,25.85
2018-02-06T08:56:16.488Z,22.20
2018-02-06T08:58:43.953Z,19.77
2018-02-06T09:01:12.201Z,14.90
2018-02-06T09:03:39.671Z,16.75
2018-02-06T09:06:07.164Z,17.05
2018-02-06T09:08:34.620Z,18.25
2018-02-06T09:11:02.132Z,17.83
2018-02-06T09:13:29.611Z,17.42
2018-02-06T09:15:57.841Z,18.17
2018-02-06T09:18:25.325Z,13.50
2018-02-06T09:20:52.785Z,12.02
2018-02-06T09:23:20.276Z,13.73
2018-02-06T09:25:47.760Z,19.05
2018-02-06T09:28:15.217Z,14.30
2018-02-06T09:30:42.722Z,20.15
2018-02-06T09:33:10.967Z,15.63
2018-02-06T09:35:38.441Z,18.30
2018-02-06T09:38:05.922Z,17.15
2018-02-06T09:40:34.180Z,15.95
2018-02-06T09:43:02.405Z,19.98
2018-02-06T09:45:29.916Z,20.67
2018-02-06T09:47:57.397Z,21.25
2018-02-06T09:50:24.858Z,15.75
2018-02-06T09:52:52.326Z,21.10
2018-02-06T09:55:19.824Z,16.23
2018-02-06T09:57:47.312Z,20.08
2018-02-06T10:00:14.798Z,20.98
2018-02-06T10:02:42.285Z,19.12
2018-02-06T10:05:09.776Z,18.00
2018-02-06T10:07:37.261Z,18.42
2018-02-06T10:10:04.771Z,14.98
2018-02-06T10:12:32.224Z,12.50
2018-02-06T10:15:00.465Z,19.43
2018-02-06T10:17:27.964Z,22.02
2018-02-06T10:19:56.203Z,15.60
2018-02-06T10:22:23.706Z,16.27
2018-02-06T10:24:51.170Z,12.80
2018-02-06T10:27:18.634Z,13.38
2018-02-06T10:29:46.117Z,9.27
2018-02-06T10:32:13.590Z,12.30
2018-02-06T10:34:41.074Z,13.60
2018-02-06T10:37:09.301Z,10.10
2018-02-06T10:39:36.804Z,14.00
2018-02-06T10:42:05.033Z,9.10
2018-02-06T10:44:32.501Z,13.20
2018-02-06T10:46:59.979Z,15.47
2018-02-06T10:49:27.438Z,18.13
2018-02-06T10:51:55.731Z,16.47
2018-02-06T10:54:23.953Z,12.30
2018-02-06T10:56:51.429Z,12.63
2018-02-06T10:59:18.893Z,12.67
2018-02-06T11:01:47.154Z,17.30
2018-02-06T11:04:14.618Z,21.73
2018-02-06T11:06:42.098Z,19.00
2018-02-06T11:09:10.333Z,28.97
2018-02-06T11:11:37.812Z,22.13
2018-02-06T11:14:05.297Z,17.90
2018-02-06T11:16:32.788Z,17.97
2018-02-06T11:19:00.248Z,16.37
2018-02-06T11:21:27.733Z,16.97
2018-02-06T11:23:55.199Z,18.70
2018-02-06T11:26:22.676Z,20.80
2018-02-06T11:28:50.138Z,23.50
2018-02-06T11:31:17.629Z,21.90
2018-02-06T11:33:45.119Z,16.83
2018-02-06T11:36:12.585Z,15.80
2018-02-06T11:38:40.855Z,16.43
2018-02-06T11:41:09.090Z,17.87
2018-02-06T11:43:36.549Z,17.90
2018-02-06T11:46:04.043Z,16.03
2018-02-06T11:48:31.497Z,13.97
2018-02-06T11:50:59.747Z,14.50
2018-02-06T11:53:27.233Z,14.03
2018-02-06T11:55:55.480Z,16.30
2018-02-06T11:58:22.941Z,18.00
2018-02-06T12:00:50.425Z,14.30
2018-02-06T12:03:18.664Z,21.20
2018-02-06T12:05:46.158Z,17.30
2018-02-06T12:08:14.405Z,23.10
2018-02-06T12:10:41.901Z,21.10
2018-02-06T12:13:13.448Z,21.63
2018-02-06T12:15:40.964Z,21.70
2018-02-06T12:18:08.443Z,19.77
2018-02-06T12:20:36.665Z,14.30
2018-02-06T12:23:04.180Z,11.73
2018-02-06T12:25:32.396Z,10.30
2018-02-06T12:27:59.853Z,6.70
2018-02-06T12:30:27.324Z,9.30
2018-02-06T12:32:54.790Z,10.60
2018-02-06T12:35:22.257Z,15.13
2018-02-06T12:37:49.741Z,13.30
2018-02-06T12:40:17.228Z,10.83
2018-02-06T12:42:44.690Z,8.93
2018-02-06T12:45:12.170Z,11.63
2018-02-06T12:47:39.633Z,11.60
2018-02-06T12:50:07.087Z,9.90
2018-02-06T12:52:34.554Z,5.97
2018-02-06T12:55:02.777Z,8.33
2018-02-06T12:57:30.234Z,8.73
2018-02-06T12:59:58.042Z,9.00
2018-02-06T13:02:25.494Z,10.37
2018-02-06T13:04:52.953Z,20.07
2018-02-06T13:07:20.440Z,10.97
2018-02-06T13:09:47.904Z,12.40
2018-02-06T13:12:15.353Z,9.60
2018-02-06T13:14:42.916Z,7.70
2018-02-06T13:17:10.379Z,8.40
2018-02-06T13:19:37.841Z,7.33
2018-02-06T13:22:05.311Z,7.37
2018-02-06T13:24:33.537Z,6.80
2018-02-06T13:27:01.797Z,9.87
2018-02-06T13:29:29.384Z,11.80
2018-02-06T13:31:56.836Z,7.00
2018-02-06T13:34:24.292Z,8.30
2018-02-06T13:36:51.781Z,10.93
2018-02-06T13:39:19.235Z,9.97
2018-02-06T13:41:46.700Z,11.20
2018-02-06T13:44:14.190Z,9.67
2018-02-06T13:46:41.637Z,8.93
2018-02-06T13:49:09.101Z,7.97
2018-02-06T13:51:36.749Z,7.73
2018-02-06T13:54:04.210Z,12.57
2018-02-06T13:56:31.665Z,9.33
2018-02-06T13:58:59.138Z,15.03
2018-02-06T14:01:27.457Z,11.80
2018-02-06T14:03:54.945Z,10.53
2018-02-06T14:06:22.428Z,8.60
2018-02-06T14:08:50.658Z,8.90
2018-02-06T14:11:18.197Z,11.10
2018-02-06T14:13:45.661Z,11.37
2018-02-06T14:16:13.142Z,7.60
2018-02-06T14:18:40.605Z,10.63
2018-02-06T14:21:08.093Z,14.13
2018-02-06T14:23:36.321Z,12.37
2018-02-06T14:26:03.800Z,9.67
2018-02-06T14:28:31.257Z,9.40
2018-02-06T14:30:58.746Z,17.13
2018-02-06T14:33:26.218Z,16.90
2018-02-06T14:35:53.708Z,10.83
2018-02-06T14:38:21.862Z,11.17
2018-02-06T14:40:49.329Z,11.47
2018-02-06T14:43:16.813Z,10.23
2018-02-06T14:45:45.044Z,11.00
2018-02-06T14:48:12.521Z,18.03
2018-02-06T14:50:40.009Z,18.40
2018-02-06T14:53:08.259Z,16.70
2018-02-06T14:55:35.745Z,17.27
2018-02-06T14:58:03.972Z,18.00
2018-02-06T15:00:31.470Z,14.60
2018-02-06T15:02:59.696Z,22.33
2018-02-06T15:05:27.153Z,17.50
2018-02-06T15:07:54.643Z,15.67
2018-02-06T15:10:22.096Z,19.27
2018-02-06T15:12:49.579Z,12.77
2018-02-06T15:15:17.821Z,14.47
2018-02-06T15:17:45.285Z,12.60
2018-02-06T15:20:12.749Z,12.43
2018-02-06T15:22:40.993Z,12.40
2018-02-06T15:25:08.472Z,12.47
2018-02-06T15:27:35.928Z,12.17
2018-02-06T15:30:04.193Z,15.20
2018-02-06T15:32:31.653Z,10.70
2018-02-06T15:34:59.108Z,15.13
2018-02-06T15:37:26.573Z,10.57
2018-02-06T15:39:54.812Z,14.53
2018-02-06T15:42:22.298Z,11.60
2018-02-06T15:44:50.548Z,20.93
2018-02-06T15:47:18.098Z,17.30
2018-02-06T15:49:45.594Z,20.40
2018-02-06T15:52:13.045Z,15.97
2018-02-06T15:54:40.542Z,21.80
2018-02-06T15:57:08.042Z,19.57
2018-02-06T15:59:35.505Z,14.03
2018-02-06T16:02:02.988Z,15.90
2018-02-06T16:04:31.225Z,14.70
2018-02-06T16:06:58.713Z,19.57
2018-02-06T16:09:27.037Z,16.50
2018-02-06T16:12:00.067Z,13.63
2018-02-06T16:14:28.080Z,16.20
2018-02-06T16:16:59.853Z,16.57
2018-02-06T16:19:27.326Z,12.17
2018-02-06T16:21:54.792Z,16.33
2018-02-06T16:24:22.299Z,14.70
2018-02-06T16:26:49.774Z,11.70
2018-02-06T16:29:17.269Z,12.80
2018-02-06T16:31:44.732Z,12.90
2018-02-06T16:34:12.988Z,16.33
2018-02-06T16:36:40.478Z,14.50
2018-02-06T16:39:08.706Z,16.30
2018-02-06T16:41:36.205Z,15.63
2018-02-06T16:44:04.430Z,12.47
2018-02-06T16:46:31.914Z,15.53
2018-02-06T16:48:59.373Z,15.93
2018-02-06T16:51:27.646Z,12.97
2018-02-06T16:53:55.101Z,16.77
2018-02-06T16:56:23.363Z,13.13
2018-02-06T16:58:50.821Z,13.17
2018-02-06T17:01:18.326Z,15.10
2018-02-06T17:03:45.786Z,16.70
2018-02-06T17:06:13.257Z,12.37
2018-02-06T17:08:40.740Z,15.40
2018-02-06T17:11:08.205Z,17.10
2018-02-06T17:13:35.693Z,17.20
2018-02-06T17:16:03.206Z,15.77
2018-02-06T17:18:30.676Z,13.00
2018-02-06T17:20:58.160Z,12.30
2018-02-06T17:23:25.670Z,16.97
2018-02-06T17:25:53.164Z,15.73
2018-02-06T17:28:21.381Z,18.90
2018-02-06T17:30:48.856Z,18.77
2018-02-06T17:33:16.330Z,20.20
2018-02-06T17:35:43.825Z,17.97
2018-02-06T17:38:11.675Z,19.97
2018-02-06T17:40:39.180Z,22.17
2018-02-06T17:43:06.703Z,21.67
2018-02-06T17:45:34.302Z,19.67
2018-02-06T17:48:01.840Z,18.10
2018-02-06T17:50:29.320Z,26.97
2018-02-06T17:52:56.809Z,31.10
2018-02-06T17:55:25.356Z,27.75
2018-02-06T17:57:54.445Z,23.58
2018-02-06T18:00:21.982Z,22.87
2018-02-06T18:02:49.491Z,29.67
2018-02-06T18:05:17.760Z,28.23
2018-02-06T18:07:46.093Z,27.87
2018-02-06T18:10:13.587Z,29.50
2018-02-06T18:12:41.130Z,23.67
2018-02-06T18:15:08.661Z,23.87
2018-02-06T18:17:36.226Z,31.17
2018-02-06T18:20:03.718Z,29.27
2018-02-06T18:22:31.197Z,30.80
2018-02-06T18:24:58.737Z,29.98
2018-02-06T18:27:27.077Z,29.30
2018-02-06T18:29:54.800Z,32.28
2018-02-06T18:32:22.412Z,33.22
2018-02-06T18:34:49.899Z,27.62
2018-02-06T18:37:18.264Z,30.40
2018-02-06T18:39:45.688Z,35.53
2018-02-06T18:42:13.237Z,26.80
2018-02-06T18:44:41.432Z,22.73
2018-02-06T18:47:08.927Z,31.67
2018-02-06T18:49:37.153Z,23.75
2018-02-06T18:52:04.649Z,28.15
2018-02-06T18:54:32.885Z,23.65
2018-02-06T18:57:00.386Z,24.90
2018-02-06T18:59:28.664Z,29.75
2018-02-06T19:01:56.888Z,27.33
2018-02-06T19:04:24.397Z,25.20
2018-02-06T19:06:51.861Z,23.00
2018-02-06T19:09:19.428Z,31.10
2018-02-06T19:11:46.913Z,32.47
2018-02-06T19:14:14.405Z,43.75
2018-02-06T19:16:42.677Z,31.40
2018-02-06T19:19:10.956Z,31.33
2018-02-06T19:21:38.387Z,31.65
2018-02-06T19:24:05.913Z,33.55
2018-02-06T19:26:33.408Z,35.97
2018-02-06T19:29:00.872Z,33.78
2018-02-06T19:31:29.139Z,37.15
2018-02-06T19:33:56.752Z,31.62
2018-02-06T19:36:24.353Z,35.03
2018-02-06T19:38:51.926Z,35.50
2018-02-06T19:41:19.430Z,33.25
2018-02-06T19:43:46.968Z,32.47
2018-02-06T19:46:14.453Z,30.15
2018-02-06T19:48:41.991Z,31.05
2018-02-06T19:51:09.468Z,23.33
2018-02-06T19:53:37.021Z,38.22
2018-02-06T19:56:04.496Z,34.60
2018-02-06T19:58:32.009Z,26.20
2018-02-06T20:01:00.443Z,33.33
2018-02-06T20:03:27.962Z,29.23
2018-02-06T20:05:55.472Z,26.77
2018-02-06T20:08:22.970Z,37.77
2018-02-06T20:10:50.482Z,30.15
2018-02-06T20:13:18.227Z,32.80
2018-02-06T20:15:45.755Z,24.42
2018-02-06T20:18:13.276Z,32.17
2018-02-06T20:20:41.536Z,33.13
2018-02-06T20:23:09.039Z,28.58
2018-02-06T20:28:32.161Z,22.10
2018-02-06T20:30:59.642Z,21.77
2018-02-06T20:33:27.896Z,25.35
2018-02-06T20:35:56.187Z,22.13
2018-02-06T20:38:24.442Z,22.35
2018-02-06T20:40:51.980Z,20.27
2018-02-06T20:43:40.284Z,21.40
2018-02-06T20:46:07.762Z,19.98
2018-02-06T20:48:35.224Z,22.05
2018-02-06T20:53:54.808Z,21.95
2018-02-06T20:56:22.323Z,20.02
2018-02-06T20:58:50.608Z,18.77
2018-02-06T21:01:18.848Z,21.73
2018-02-06T21:03:46.326Z,19.60
2018-02-06T21:06:14.590Z,18.23
2018-02-06T21:08:42.908Z,20.60
2018-02-06T21:11:11.138Z,19.30
2018-02-06T21:13:39.406Z,17.50
2018-02-06T21:16:06.893Z,18.40
2018-02-06T21:18:34.361Z,24.75
2018-02-06T21:21:01.862Z,18.52
2018-02-06T21:23:30.285Z,16.60
2018-02-06T21:25:57.826Z,17.60
2018-02-06T21:28:25.296Z,20.17
2018-02-06T21:30:52.844Z,17.98
2018-02-06T21:33:21.077Z,17.27
2018-02-06T21:35:48.577Z,18.50
2018-02-06T21:38:16.101Z,17.52
2018-02-06T21:40:43.589Z,17.12
2018-02-06T21:43:11.812Z,18.83
2018-02-06T21:45:39.304Z,17.10
2018-02-06T21:48:07.565Z,23.87
2018-02-06T21:50:35.042Z,20.05
2018-02-06T21:53:03.305Z,21.52
2018-02-06T21:55:30.790Z,17.83
2018-02-06T21:57:58.288Z,19.37
2018-02-06T22:00:25.756Z,17.33
2018-02-06T22:02:53.241Z,18.90
2018-02-06T22:05:21.478Z,19.87
2018-02-06T22:07:48.964Z,18.35
2018-02-06T22:10:17.297Z,18.80
2018-02-06T22:12:44.753Z,19.87
2018-02-06T22:15:12.240Z,15.88
2018-02-06T22:17:39.720Z,17.10
2018-02-06T22:20:07.213Z,23.23
2018-02-06T22:22:34.693Z,17.42
2018-02-06T22:25:02.157Z,21.87
2018-02-06T22:27:29.649Z,17.77
2018-02-06T22:29:57.146Z,18.65
2018-02-06T22:32:24.616Z,16.95
2018-02-06T22:34:52.120Z,20.35
2018-02-06T22:37:20.368Z,17.17
2018-02-06T22:39:48.600Z,16.95
2018-02-06T22:42:16.097Z,21.00
2018-02-06T22:44:43.561Z,19.80
2018-02-06T22:47:11.797Z,18.75
2018-02-06T22:49:39.415Z,18.42
2018-02-06T22:52:07.643Z,19.67
2018-02-06T22:54:35.130Z,21.95
2018-02-06T22:57:03.385Z,20.55
2018-02-06T22:59:30.852Z,15.70
2018-02-06T23:01:58.362Z,19.60
2018-02-06T23:04:25.816Z,21.15
2018-02-06T23:06:53.286Z,18.23
2018-02-06T23:09:20.838Z,21.17
2018-02-06T23:11:48.310Z,17.08
2018-02-06T23:14:15.806Z,17.42
2018-02-06T23:16:44.036Z,14.82
2018-02-06T23:19:11.514Z,17.83
2018-02-06T23:21:39.057Z,18.67
2018-02-06T23:24:06.522Z,16.12
2018-02-06T23:26:34.003Z,17.80
2018-02-06T23:29:02.238Z,19.00
2018-02-06T23:31:29.729Z,17.00
2018-02-06T23:33:57.960Z,19.73
2018-02-06T23:36:25.433Z,20.77
2018-02-06T23:38:52.929Z,22.20
2018-02-06T23:41:20.400Z,18.12
2018-02-06T23:43:47.878Z,19.83
2018-02-06T23:46:15.365Z,18.77
2018-02-06T23:48:42.825Z,17.95
2018-02-06T23:51:10.308Z,16.85
2018-02-06T23:53:37.794Z,16.70
2018-02-06T23:56:05.274Z,20.00
2018-02-06T23:58:32.758Z,15.80
